createdAt,value
2018-05-04T00:00:18.681Z,40.37
2018-05-04T00:02:51.870Z,39.96
2018-05-04T00:05:19.010Z,39.89
2018-05-04T00:07:45.266Z,41.06
2018-05-04T00:10:11.530Z,40.91
2018-05-04T00:12:38.110Z,40.17
2018-05-04T00:15:04.398Z,39.86
2018-05-04T00:17:30.876Z,39.77
2018-05-04T00:19:57.110Z,40.44
2018-05-04T00:22:23.345Z,41.41
2018-05-04T00:24:49.667Z,40.31
2018-05-04T00:27:15.921Z,40.96
2018-05-04T00:29:42.223Z,40.58
2018-05-04T00:32:08.442Z,40.17
2018-05-04T00:34:35.526Z,40.75
2018-05-04T00:37:01.754Z,40.00
2018-05-04T00:39:28.026Z,41.09
2018-05-04T00:41:54.263Z,40.91
2018-05-04T00:44:20.506Z,40.59
2018-05-04T00:46:46.789Z,40.68
2018-05-04T00:49:13.053Z,40.50
2018-05-04T00:51:40.146Z,40.87
2018-05-04T00:54:18.490Z,40.26
2018-05-04T00:56:44.740Z,40.60
2018-05-04T00:59:10.955Z,41.96
2018-05-04T01:01:37.242Z,41.86
2018-05-04T01:04:03.517Z,41.82
2018-05-04T01:06:29.753Z,41.37
2018-05-04T01:08:56.078Z,41.79
2018-05-04T01:11:22.302Z,41.51
2018-05-04T01:13:48.554Z,41.67
2018-05-04T01:16:14.806Z,42.21
2018-05-04T01:18:41.046Z,41.98
2018-05-04T01:21:07.339Z,42.17
2018-05-04T01:23:33.570Z,42.56
2018-05-04T01:25:59.790Z,42.14
2018-05-04T01:28:26.045Z,42.50
2018-05-04T01:30:52.273Z,42.77
2018-05-04T01:33:18.604Z,42.18
2018-05-04T01:35:44.861Z,42.33
2018-05-04T01:38:11.082Z,42.80
2018-05-04T01:40:37.334Z,42.43
2018-05-04T01:43:03.631Z,41.84
2018-05-04T01:45:29.970Z,42.42
2018-05-04T01:47:56.239Z,42.43
2018-05-04T01:50:22.474Z,42.30
2018-05-04T01:52:48.741Z,42.29
2018-05-04T01:55:14.962Z,41.77
2018-05-04T01:57:41.254Z,41.73
2018-05-04T02:00:07.511Z,42.08
2018-05-04T02:02:33.826Z,41.65
2018-05-04T02:05:00.104Z,41.11
2018-05-04T02:07:26.410Z,40.50
2018-05-04T02:09:52.640Z,39.33
2018-05-04T02:12:18.869Z,38.84
2018-05-04T02:14:45.173Z,37.41
2018-05-04T02:17:11.385Z,36.75
2018-05-04T02:19:37.618Z,36.05
2018-05-04T02:22:03.878Z,35.15
2018-05-04T02:24:30.170Z,34.71
2018-05-04T02:26:56.383Z,34.68
2018-05-04T02:29:22.662Z,34.39
2018-05-04T02:31:48.918Z,33.98
2018-05-04T02:34:15.236Z,34.00
2018-05-04T02:36:41.510Z,33.36
2018-05-04T02:39:14.766Z,33.87
2018-05-04T02:41:41.082Z,33.91
2018-05-04T02:44:07.301Z,33.06
2018-05-04T02:46:33.547Z,32.29
2018-05-04T02:49:00.035Z,31.91
2018-05-04T02:51:26.249Z,31.48
2018-05-04T02:53:52.479Z,32.08
2018-05-04T02:56:18.758Z,31.82
2018-05-04T02:58:45.014Z,31.72
2018-05-04T03:01:11.278Z,31.37
2018-05-04T03:03:37.602Z,31.87
2018-05-04T03:06:04.055Z,31.50
2018-05-04T03:08:30.362Z,31.58
2018-05-04T03:10:56.597Z,32.17
2018-05-04T03:13:22.818Z,31.61
2018-05-04T03:15:49.042Z,31.85
2018-05-04T03:18:15.298Z,31.91
2018-05-04T03:20:41.623Z,31.21
2018-05-04T03:23:08.102Z,31.41
2018-05-04T03:25:34.395Z,31.65
2018-05-04T03:28:00.691Z,31.23
2018-05-04T03:30:26.935Z,31.46
2018-05-04T03:32:53.190Z,31.79
2018-05-04T03:35:19.453Z,31.54
2018-05-04T03:37:45.702Z,31.54
2018-05-04T03:40:12.290Z,31.81
2018-05-04T03:42:38.497Z,31.95
2018-05-04T03:45:04.797Z,32.37
2018-05-04T03:47:31.058Z,32.37
2018-05-04T03:49:57.318Z,32.43
2018-05-04T03:52:25.564Z,32.15
2018-05-04T03:54:51.802Z,32.61
2018-05-04T03:57:30.434Z,33.61
2018-05-04T04:00:08.954Z,32.82
2018-05-04T04:02:58.289Z,32.83
2018-05-04T04:05:24.622Z,33.09
2018-05-04T04:07:50.921Z,33.75
2018-05-04T04:10:17.191Z,33.47
2018-05-04T04:12:43.471Z,33.66
2018-05-04T04:15:09.711Z,33.89
2018-05-04T04:17:35.954Z,34.14
2018-05-04T04:20:02.208Z,33.18
2018-05-04T04:22:28.447Z,33.52
2018-05-04T04:24:54.746Z,33.17
2018-05-04T04:27:20.999Z,32.77
2018-05-04T04:29:47.325Z,33.32
2018-05-04T04:32:13.557Z,32.49
2018-05-04T04:34:39.834Z,32.65
2018-05-04T04:37:06.057Z,32.48
2018-05-04T04:39:32.273Z,32.85
2018-05-04T04:41:58.546Z,33.68
2018-05-04T04:44:24.757Z,33.60
2018-05-04T04:46:51.011Z,34.12
2018-05-04T04:49:17.273Z,34.66
2018-05-04T04:51:43.537Z,34.94
2018-05-04T04:54:09.762Z,34.45
2018-05-04T04:56:36.003Z,34.32
2018-05-04T04:59:02.238Z,34.51
2018-05-04T05:01:28.507Z,35.55
2018-05-04T05:03:54.770Z,35.61
2018-05-04T05:06:21.002Z,35.48
2018-05-04T05:08:47.222Z,35.80
2018-05-04T05:11:13.970Z,36.44
2018-05-04T05:13:40.198Z,37.00
2018-05-04T05:16:06.418Z,36.82
2018-05-04T05:18:32.691Z,36.82
2018-05-04T05:20:58.902Z,36.55
2018-05-04T05:23:25.178Z,36.89
2018-05-04T05:25:51.418Z,36.92
2018-05-04T05:28:17.703Z,37.25
2018-05-04T05:30:43.926Z,37.12
2018-05-04T05:33:10.263Z,37.43
2018-05-04T05:35:36.569Z,37.96
2018-05-04T05:38:02.810Z,37.52
2018-05-04T05:40:29.051Z,38.30
2018-05-04T05:42:55.294Z,37.37
2018-05-04T05:45:21.535Z,38.43
2018-05-04T05:47:47.875Z,38.01
2018-05-04T05:50:14.158Z,39.07
2018-05-04T05:52:40.387Z,37.62
2018-05-04T05:55:06.631Z,38.60
2018-05-04T05:57:32.849Z,37.71
2018-05-04T05:59:59.099Z,37.37
2018-05-04T06:02:25.358Z,37.57
2018-05-04T06:04:51.597Z,38.34
2018-05-04T06:07:17.900Z,37.63
2018-05-04T06:09:44.160Z,37.87
2018-05-04T06:12:10.439Z,37.95
2018-05-04T06:14:36.686Z,38.79
2018-05-04T06:17:02.962Z,38.91
2018-05-04T06:19:29.235Z,38.97
2018-05-04T06:21:55.458Z,39.27
2018-05-04T06:24:21.742Z,38.47
2018-05-04T06:26:47.978Z,37.98
2018-05-04T06:29:14.202Z,38.64
2018-05-04T06:31:40.482Z,38.98
2018-05-04T06:34:06.739Z,40.40
2018-05-04T06:36:32.998Z,39.22
2018-05-04T06:38:59.302Z,38.96
2018-05-04T06:41:25.520Z,39.80
2018-05-04T06:43:51.754Z,39.64
2018-05-04T06:46:18.007Z,38.39
2018-05-04T06:48:44.328Z,38.00
2018-05-04T06:51:10.473Z,38.39
2018-05-04T06:53:36.738Z,38.29
2018-05-04T06:56:03.011Z,39.12
2018-05-04T06:58:29.227Z,39.42
2018-05-04T07:00:55.474Z,38.44
2018-05-04T07:03:21.730Z,38.96
2018-05-04T07:05:47.978Z,38.63
2018-05-04T07:08:14.221Z,38.55
2018-05-04T07:10:40.470Z,38.32
2018-05-04T07:13:06.678Z,38.92
2018-05-04T07:15:32.932Z,39.47
2018-05-04T07:17:59.150Z,39.18
2018-05-04T07:20:25.373Z,38.25
2018-05-04T07:22:51.618Z,38.42
2018-05-04T07:25:17.955Z,37.91
2018-05-04T07:27:44.170Z,38.05
2018-05-04T07:30:10.438Z,38.52
2018-05-04T07:32:36.691Z,38.11
2018-05-04T07:35:02.953Z,37.12
2018-05-04T07:37:29.222Z,37.87
2018-05-04T07:39:55.434Z,37.13
2018-05-04T07:42:21.662Z,35.93
2018-05-04T07:44:47.929Z,34.61
2018-05-04T07:47:14.154Z,34.24
2018-05-04T07:49:40.414Z,34.13
2018-05-04T07:52:06.670Z,33.95
2018-05-04T07:54:32.895Z,33.73
2018-05-04T07:56:59.134Z,33.69
2018-05-04T07:59:25.387Z,32.86
2018-05-04T08:01:51.638Z,33.71
2018-05-04T08:04:17.887Z,32.90
2018-05-04T08:06:44.134Z,33.21
2018-05-04T08:09:10.436Z,33.42
2018-05-04T08:11:36.599Z,33.49
2018-05-04T08:14:02.958Z,34.11
2018-05-04T08:16:29.186Z,34.83
2018-05-04T08:18:55.405Z,33.70
2018-05-04T08:21:21.689Z,34.44
2018-05-04T08:23:47.907Z,33.78
2018-05-04T08:26:14.134Z,35.12
2018-05-04T08:28:40.393Z,34.41
2018-05-04T08:31:06.698Z,32.66
2018-05-04T08:33:32.919Z,33.00
2018-05-04T08:35:59.210Z,30.84
2018-05-04T08:38:25.478Z,31.09
2018-05-04T08:40:51.800Z,30.43
2018-05-04T08:43:17.979Z,29.82
2018-05-04T08:45:44.269Z,29.93
2018-05-04T08:48:10.544Z,30.02
2018-05-04T08:50:36.774Z,28.40
2018-05-04T08:53:03.047Z,27.88
2018-05-04T08:55:29.266Z,28.81
2018-05-04T08:57:55.528Z,27.40
2018-05-04T09:00:21.774Z,27.93
2018-05-04T09:02:48.019Z,28.80
2018-05-04T09:05:14.391Z,27.71
2018-05-04T09:07:40.613Z,27.40
2018-05-04T09:10:06.858Z,27.43
2018-05-04T09:12:33.146Z,25.10
2018-05-04T09:14:59.390Z,27.03
2018-05-04T09:17:25.667Z,24.96
2018-05-04T09:19:52.053Z,25.54
2018-05-04T09:22:18.230Z,25.33
2018-05-04T09:24:44.458Z,25.16
2018-05-04T09:27:10.713Z,25.02
2018-05-04T09:29:37.013Z,25.31
2018-05-04T09:32:03.278Z,26.51
2018-05-04T09:34:29.541Z,25.75
2018-05-04T09:36:55.810Z,24.90
2018-05-04T09:39:22.058Z,24.84
2018-05-04T09:41:48.342Z,25.60
2018-05-04T09:44:14.574Z,24.82
2018-05-04T09:46:40.797Z,24.83
2018-05-04T09:49:07.138Z,23.96
2018-05-04T09:51:33.380Z,23.23
2018-05-04T09:53:59.601Z,22.27
2018-05-04T09:56:25.861Z,22.61
2018-05-04T09:58:52.121Z,20.82
2018-05-04T10:01:18.461Z,20.82
2018-05-04T10:03:44.782Z,20.50
2018-05-04T10:06:11.030Z,20.84
2018-05-04T10:08:37.294Z,21.29
2018-05-04T10:11:03.579Z,19.12
2018-05-04T10:13:29.838Z,19.62
2018-05-04T10:15:56.096Z,20.19
2018-05-04T10:18:22.349Z,19.73
2018-05-04T10:20:48.597Z,19.45
2018-05-04T10:23:14.857Z,19.41
2018-05-04T10:25:41.123Z,17.08
2018-05-04T10:28:07.402Z,17.88
2018-05-04T10:30:33.666Z,18.87
2018-05-04T10:32:59.918Z,19.08
2018-05-04T10:35:26.174Z,18.48
2018-05-04T10:37:52.411Z,18.91
2018-05-04T10:40:18.847Z,18.79
2018-05-04T10:42:45.156Z,18.29
2018-05-04T10:45:11.474Z,17.11
2018-05-04T10:47:37.730Z,19.34
2018-05-04T10:50:04.003Z,18.36
2018-05-04T10:52:30.267Z,18.18
2018-05-04T10:54:56.519Z,18.04
2018-05-04T10:57:22.787Z,16.54
2018-05-04T10:59:49.087Z,17.45
2018-05-04T11:02:15.390Z,16.87
2018-05-04T11:04:41.642Z,16.52
2018-05-04T11:07:07.926Z,16.79
2018-05-04T11:09:34.174Z,16.37
2018-05-04T11:12:00.491Z,15.55
2018-05-04T11:14:26.681Z,14.73
2018-05-04T11:16:52.949Z,15.75
2018-05-04T11:19:19.253Z,17.47
2018-05-04T11:21:45.470Z,15.23
2018-05-04T11:24:11.746Z,14.52
2018-05-04T11:26:37.990Z,16.11
2018-05-04T11:29:04.226Z,14.10
2018-05-04T11:31:30.535Z,13.94
2018-05-04T11:33:56.766Z,14.18
2018-05-04T11:36:22.999Z,13.93
2018-05-04T11:38:49.319Z,14.12
2018-05-04T11:41:15.543Z,13.76
2018-05-04T11:43:41.764Z,14.33
2018-05-04T11:46:08.038Z,14.01
2018-05-04T11:48:34.278Z,12.56
2018-05-04T11:51:00.500Z,13.52
2018-05-04T11:53:26.762Z,13.24
2018-05-04T11:55:52.986Z,13.10
2018-05-04T11:58:19.211Z,12.76
2018-05-04T12:00:45.454Z,12.45
2018-05-04T12:03:11.678Z,12.53
2018-05-04T12:05:37.906Z,13.63
2018-05-04T12:08:04.154Z,13.02
2018-05-04T12:10:30.382Z,13.51
2018-05-04T12:12:56.649Z,12.42
2018-05-04T12:15:22.926Z,12.99
2018-05-04T12:17:49.155Z,11.48
2018-05-04T12:20:15.637Z,11.69
2018-05-04T12:22:41.942Z,12.01
2018-05-04T12:25:08.130Z,12.60
2018-05-04T12:27:34.347Z,12.46
2018-05-04T12:30:00.615Z,11.59
2018-05-04T12:32:26.830Z,13.18
2018-05-04T12:34:53.065Z,12.15
2018-05-04T12:37:19.325Z,11.46
2018-05-04T12:39:45.558Z,11.99
2018-05-04T12:42:11.821Z,12.16
2018-05-04T12:44:38.091Z,12.50
2018-05-04T12:47:04.391Z,11.48
2018-05-04T12:49:30.570Z,11.53
2018-05-04T12:51:56.821Z,11.13
2018-05-04T12:54:23.045Z,12.27
2018-05-04T12:56:49.300Z,11.78
2018-05-04T12:59:15.574Z,11.54
2018-05-04T13:01:41.798Z,11.61
2018-05-04T13:04:08.025Z,12.19
2018-05-04T13:06:34.269Z,11.99
2018-05-04T13:09:00.490Z,11.83
2018-05-04T13:11:26.773Z,11.60
2018-05-04T13:13:53.055Z,11.89
2018-05-04T13:16:19.279Z,11.42
2018-05-04T13:18:45.506Z,12.31
2018-05-04T13:21:11.759Z,12.37
2018-05-04T13:23:37.994Z,11.47
2018-05-04T13:26:04.218Z,12.38
2018-05-04T13:28:30.481Z,12.18
2018-05-04T13:30:56.744Z,12.64
2018-05-04T13:33:23.037Z,12.67
2018-05-04T13:35:49.294Z,11.62
2018-05-04T13:38:15.562Z,11.50
2018-05-04T13:40:41.790Z,11.08
2018-05-04T13:43:08.075Z,12.33
2018-05-04T13:45:34.319Z,12.68
2018-05-04T13:48:00.546Z,13.05
2018-05-04T13:50:26.868Z,12.98
2018-05-04T13:52:53.125Z,11.97
2018-05-04T13:55:19.349Z,12.71
2018-05-04T13:57:45.630Z,13.43
2018-05-04T14:00:11.868Z,12.18
2018-05-04T14:02:38.181Z,12.63
2018-05-04T14:05:04.483Z,12.20
2018-05-04T14:07:30.715Z,12.61
2018-05-04T14:09:56.946Z,12.66
2018-05-04T14:12:23.237Z,12.89
2018-05-04T14:14:49.519Z,12.74
2018-05-04T14:17:15.750Z,12.08
2018-05-04T14:19:42.026Z,12.64
2018-05-04T14:22:08.252Z,12.27
2018-05-04T14:24:34.516Z,12.83
2018-05-04T14:27:00.778Z,12.73
2018-05-04T14:29:27.000Z,12.70
2018-05-04T14:31:53.226Z,12.31
2018-05-04T14:34:19.485Z,13.05
2018-05-04T14:36:45.709Z,12.86
2018-05-04T14:39:11.928Z,12.67
2018-05-04T14:41:38.183Z,13.69
2018-05-04T14:44:04.419Z,13.23
2018-05-04T14:46:30.672Z,13.81
2018-05-04T14:48:56.934Z,13.42
2018-05-04T14:51:23.156Z,13.04
2018-05-04T14:53:49.377Z,13.41
2018-05-04T14:56:15.662Z,13.25
2018-05-04T14:58:41.974Z,12.84
2018-05-04T15:01:08.179Z,13.80
2018-05-04T15:03:34.430Z,13.70
2018-05-04T15:06:00.659Z,13.87
2018-05-04T15:08:26.926Z,14.99
2018-05-04T15:10:53.198Z,15.02
2018-05-04T15:13:19.418Z,14.98
2018-05-04T15:15:45.674Z,15.35
2018-05-04T15:18:11.966Z,15.28
2018-05-04T15:20:38.186Z,16.66
2018-05-04T15:23:04.415Z,16.46
2018-05-04T15:25:30.678Z,16.90
2018-05-04T15:27:56.922Z,17.21
2018-05-04T15:30:23.159Z,17.77
2018-05-04T15:32:49.404Z,18.34
2018-05-04T15:35:15.630Z,19.03
2018-05-04T15:37:41.868Z,19.56
2018-05-04T15:40:08.141Z,20.37
2018-05-04T15:42:34.366Z,21.87
2018-05-04T15:45:00.590Z,22.52
2018-05-04T15:47:26.838Z,22.10
2018-05-04T15:49:53.103Z,22.75
2018-05-04T15:52:19.326Z,24.67
2018-05-04T15:54:45.668Z,24.50
2018-05-04T15:57:11.851Z,25.96
2018-05-04T15:59:38.087Z,25.79
2018-05-04T16:02:04.341Z,25.68
2018-05-04T16:04:30.575Z,26.12
2018-05-04T16:06:56.902Z,26.72
2018-05-04T16:09:23.161Z,27.02
2018-05-04T16:11:49.394Z,26.76
2018-05-04T16:14:15.637Z,27.01
2018-05-04T16:16:41.890Z,26.89
2018-05-04T16:19:08.123Z,27.34
2018-05-04T16:21:34.377Z,27.10
2018-05-04T16:24:00.638Z,27.68
2018-05-04T16:26:26.902Z,28.44
2018-05-04T16:28:53.177Z,28.96
2018-05-04T16:31:19.441Z,29.52
2018-05-04T16:33:45.674Z,29.67
2018-05-04T16:36:11.902Z,28.76
2018-05-04T16:38:38.228Z,29.55
2018-05-04T16:41:04.443Z,29.81
2018-05-04T16:43:30.678Z,30.42
2018-05-04T16:45:56.935Z,31.04
2018-05-04T16:48:29.114Z,30.44
2018-05-04T16:50:55.343Z,30.22
2018-05-04T16:53:21.598Z,30.37
2018-05-04T16:55:47.922Z,31.29
2018-05-04T16:58:14.170Z,31.17
2018-05-04T17:00:40.489Z,31.67
2018-05-04T17:03:06.806Z,31.71
2018-05-04T17:05:33.058Z,32.22
2018-05-04T17:07:59.366Z,31.82
2018-05-04T17:10:25.613Z,31.42
2018-05-04T17:12:51.891Z,31.87
2018-05-04T17:15:18.200Z,32.26
2018-05-04T17:17:44.464Z,32.61
2018-05-04T17:20:10.693Z,32.34
2018-05-04T17:22:36.994Z,32.52
2018-05-04T17:25:03.274Z,32.81
2018-05-04T17:27:29.538Z,33.29
2018-05-04T17:29:55.823Z,33.03
2018-05-04T17:32:22.086Z,33.28
2018-05-04T17:34:48.309Z,33.71
2018-05-04T17:37:14.602Z,33.83
2018-05-04T17:39:40.831Z,33.79
2018-05-04T17:42:07.073Z,34.21
2018-05-04T17:44:33.366Z,34.13
2018-05-04T17:46:59.614Z,34.17
2018-05-04T17:49:25.878Z,34.78
2018-05-04T17:51:52.178Z,34.79
2018-05-04T17:54:18.434Z,34.59
2018-05-04T17:56:44.670Z,34.40
2018-05-04T17:59:10.983Z,34.52
2018-05-04T18:01:37.238Z,34.44
2018-05-04T18:04:03.490Z,34.61
2018-05-04T18:06:29.766Z,34.33
2018-05-04T18:08:56.007Z,34.59
2018-05-04T18:11:22.242Z,34.75
2018-05-04T18:13:48.499Z,34.77
2018-05-04T18:16:14.759Z,34.77
2018-05-04T18:18:41.034Z,34.86
2018-05-04T18:21:07.305Z,35.17
2018-05-04T18:23:33.553Z,35.26
2018-05-04T18:25:59.763Z,35.37
2018-05-04T18:28:26.360Z,35.53
2018-05-04T18:30:52.685Z,35.45
2018-05-04T18:33:19.038Z,35.65
2018-05-04T18:35:45.292Z,35.93
2018-05-04T18:38:11.566Z,36.37
2018-05-04T18:40:37.806Z,35.85
2018-05-04T18:43:04.063Z,36.23
2018-05-04T18:45:30.307Z,36.52
2018-05-04T18:47:56.539Z,36.52
2018-05-04T18:50:22.779Z,37.00
2018-05-04T18:52:49.018Z,36.68
2018-05-04T18:55:15.370Z,37.53
2018-05-04T18:57:41.682Z,37.60
2018-05-04T19:00:07.966Z,37.42
2018-05-04T19:02:40.349Z,37.52
2018-05-04T19:05:06.694Z,37.75
2018-05-04T19:07:32.923Z,37.66
2018-05-04T19:09:59.218Z,38.39
2018-05-04T19:12:25.487Z,38.52
2018-05-04T19:14:51.768Z,38.20
2018-05-04T19:17:18.150Z,37.91
2018-05-04T19:19:44.414Z,38.50
2018-05-04T19:22:10.638Z,38.81
2018-05-04T19:24:36.883Z,38.82
2018-05-04T19:27:03.143Z,39.17
2018-05-04T19:29:29.386Z,39.42
2018-05-04T19:31:55.748Z,40.40
2018-05-04T19:34:22.400Z,41.12
2018-05-04T19:36:48.626Z,40.62
2018-05-04T19:39:14.886Z,40.81
2018-05-04T19:41:41.163Z,41.37
2018-05-04T19:44:07.391Z,41.59
2018-05-04T19:46:33.602Z,41.96
2018-05-04T19:48:59.854Z,42.46
2018-05-04T19:51:26.069Z,42.38
2018-05-04T19:53:52.318Z,42.58
2018-05-04T19:56:18.619Z,41.77
2018-05-04T19:58:44.883Z,42.22
2018-05-04T20:01:11.115Z,42.28
2018-05-04T20:03:37.383Z,42.15
2018-05-04T20:06:03.631Z,42.20
2018-05-04T20:08:29.855Z,41.79
2018-05-04T20:10:56.116Z,42.52
2018-05-04T20:13:22.335Z,42.76
2018-05-04T20:15:48.582Z,43.01
2018-05-04T20:18:14.832Z,43.23
2018-05-04T20:20:41.082Z,43.16
2018-05-04T20:23:07.466Z,43.54
2018-05-04T20:25:33.783Z,43.62
2018-05-04T20:28:00.210Z,43.32
2018-05-04T20:30:33.460Z,43.14
2018-05-04T20:32:59.696Z,43.77
2018-05-04T20:35:25.922Z,43.92
2018-05-04T20:37:52.203Z,43.92
2018-05-04T20:40:18.744Z,43.99
2018-05-04T20:42:45.047Z,44.08
2018-05-04T20:45:11.457Z,44.42
2018-05-04T20:47:37.727Z,44.44
2018-05-04T20:50:04.833Z,44.81
2018-05-04T20:52:31.174Z,44.94
2018-05-04T20:54:57.398Z,44.95
2018-05-04T20:57:23.708Z,44.87
2018-05-04T20:59:49.983Z,44.73
2018-05-04T21:02:16.198Z,45.20
2018-05-04T21:04:42.486Z,45.47
2018-05-04T21:07:08.835Z,45.35
2018-05-04T21:09:35.199Z,44.66
2018-05-04T21:12:01.422Z,43.85
2018-05-04T21:14:28.759Z,44.03
2018-05-04T21:16:54.994Z,43.55
2018-05-04T21:19:21.284Z,43.25
2018-05-04T21:21:47.608Z,44.31
2018-05-04T21:24:13.870Z,44.46
2018-05-04T21:26:40.187Z,43.03
2018-05-04T21:29:07.383Z,43.15
2018-05-04T21:31:33.814Z,42.54
2018-05-04T21:34:00.041Z,43.01
2018-05-04T21:36:26.374Z,43.04
2018-05-04T21:38:52.671Z,43.68
2018-05-04T21:41:19.001Z,43.77
2018-05-04T21:43:45.467Z,44.01
2018-05-04T21:46:11.682Z,44.40
2018-05-04T21:48:37.958Z,44.38
2018-05-04T21:51:04.245Z,43.97
2018-05-04T21:53:31.582Z,44.07
2018-05-04T21:55:58.873Z,44.32
2018-05-04T21:58:25.290Z,44.39
2018-05-04T22:00:51.518Z,44.34
2018-05-04T22:03:17.857Z,44.40
2018-05-04T22:05:44.155Z,44.91
2018-05-04T22:08:10.430Z,45.01
2018-05-04T22:10:36.671Z,44.86
2018-05-04T22:13:02.917Z,45.20
2018-05-04T22:15:29.297Z,44.95
2018-05-04T22:17:55.534Z,45.17
2018-05-04T22:20:21.871Z,45.26
2018-05-04T22:22:48.094Z,45.37
2018-05-04T22:25:14.398Z,45.31
2018-05-04T22:27:40.695Z,45.28
2018-05-04T22:30:07.036Z,45.65
2018-05-04T22:32:33.322Z,45.84
2018-05-04T22:34:59.583Z,45.70
2018-05-04T22:37:25.805Z,45.87
2018-05-04T22:39:52.114Z,46.07
2018-05-04T22:42:18.369Z,46.17
2018-05-04T22:44:44.682Z,46.32
2018-05-04T22:47:10.854Z,45.67
2018-05-04T22:49:37.119Z,46.07
2018-05-04T22:52:03.434Z,46.03
2018-05-04T22:54:29.643Z,46.32
2018-05-04T22:56:55.885Z,46.30
2018-05-04T22:59:22.106Z,45.91
2018-05-04T23:01:48.338Z,46.36
2018-05-04T23:04:14.585Z,46.61
2018-05-04T23:06:40.847Z,46.58
2018-05-04T23:09:07.148Z,46.63
2018-05-04T23:11:33.364Z,46.61
2018-05-04T23:13:59.578Z,46.72
2018-05-04T23:16:25.812Z,47.11
2018-05-04T23:18:52.070Z,47.07
2018-05-04T23:21:18.314Z,46.64
2018-05-04T23:23:44.546Z,46.90
2018-05-04T23:26:10.789Z,47.15
2018-05-04T23:28:37.239Z,47.26
2018-05-04T23:31:04.257Z,47.31
2018-05-04T23:33:30.527Z,47.47
2018-05-04T23:35:56.737Z,47.32
2018-05-04T23:38:22.953Z,46.96
2018-05-04T23:40:49.262Z,46.56
2018-05-04T23:43:15.482Z,46.53
2018-05-04T23:45:41.714Z,46.66
2018-05-04T23:48:07.998Z,47.33
2018-05-04T23:50:34.221Z,47.13
2018-05-04T23:53:00.438Z,46.58
2018-05-04T23:55:26.696Z,46.09
2018-05-04T23:57:52.966Z,46.06
